Spalding, Nebraska
Current Conditions -  °F | °C
As of 1:15 PM on Tuesday 21 Oct 2014 (Local Time) from KBVN Reporting Station
Clear Clear  
Wind Chill: 23°   Ceiling: Unl
Heat Index: 23°   Visibility: 10mi
Dew Point:   Wind: 15mph
Humidity: 32%   Direction: 200°SSW
Pressure: 30.04"   Gusts: 20mph
Location:  41.69°N, 98.36°W
Report Text: KBVN 211815Z AUTO 20013G17KT 10SM CLR 23/05 A3004 RMK AO2 T02290054
Loading
Personal Weather Stations






























Interactive Weather Map
Tropical Storm Tracking
New forecast layout! Learn more

10-Day Weather Forecast

Advertisements
Track Severe Weather on mobile